Time;durP1;ratioP1;P1;durP2;ratioP2;P2;SDS_P1;SDS_P2;PMS_P1;PMS_P2;Temp;Humidity;BMP_temperature;BMP_pressure;BME280_temperature;BME280_humidity;BME280_pressure;Samples;Min_cycle;Max_cycle;Signal;HPM_P1;HPM_P2
2021/09/22 00:01:50;;;;;;;70.55;8.27;;;10.40;99.90;;;;;;5053350;28;20024;-82
2021/09/22 00:04:16;;;;;;;84.90;8.38;;;10.60;99.90;;;;;;5052864;28;20040;-82
2021/09/22 00:06:41;;;;;;;68.95;7.60;;;10.50;99.90;;;;;;5052968;28;20389;-82
2021/09/22 00:09:07;;;;;;;58.83;8.50;;;10.40;99.90;;;;;;5053030;28;20017;-82
2021/09/22 00:11:33;;;;;;;75.15;8.27;;;10.50;99.90;;;;;;5037578;28;20033;-82
2021/09/22 00:13:58;;;;;;;56.13;6.55;;;10.30;99.90;;;;;;5034071;28;20022;-83
2021/09/22 00:16:24;;;;;;;58.20;6.93;;;10.30;99.90;;;;;;5034176;28;20044;-82
2021/09/22 00:18:49;;;;;;;54.13;7.43;;;10.40;99.90;;;;;;5032864;28;20021;-82
2021/09/22 00:21:15;;;;;;;73.93;8.68;;;10.20;99.90;;;;;;5044954;28;20036;-82
2021/09/22 00:23:41;;;;;;;69.13;7.32;;;10.40;99.90;;;;;;5053915;28;20053;-82
2021/09/22 00:26:06;;;;;;;46.05;8.63;;;10.50;99.90;;;;;;5053778;28;20116;-82
2021/09/22 00:28:32;;;;;;;72.85;7.72;;;10.60;99.90;;;;;;5052543;28;20050;-82
2021/09/22 00:30:58;;;;;;;71.45;8.18;;;10.70;99.90;;;;;;5047685;28;20363;-82
2021/09/22 00:33:23;;;;;;;68.95;8.48;;;10.60;99.90;;;;;;5033897;28;20490;-82
2021/09/22 00:35:49;;;;;;;65.30;7.47;;;10.80;99.90;;;;;;5033674;28;20396;-82
2021/09/22 00:38:15;;;;;;;67.47;8.02;;;10.90;99.90;;;;;;5033761;28;20029;-82
2021/09/22 00:40:40;;;;;;;68.93;8.13;;;10.90;99.90;;;;;;5034254;28;20025;-82
2021/09/22 00:43:06;;;;;;;62.05;7.82;;;11.00;99.90;;;;;;5052274;28;20035;-82
2021/09/22 00:45:32;;;;;;;80.85;10.82;;;11.10;99.90;;;;;;5052168;28;20056;-82
2021/09/22 00:47:57;;;;;;;61.25;8.75;;;11.20;99.90;;;;;;5052100;28;20135;-82
2021/09/22 00:50:23;;;;;;;70.95;8.50;;;11.20;99.90;;;;;;5053628;28;20070;-82
2021/09/22 00:52:49;;;;;;;73.53;7.90;;;11.30;99.90;;;;;;5037650;28;20479;-82
2021/09/22 00:55:15;;;;;;;67.82;8.95;;;11.40;99.90;;;;;;5031987;28;20068;-82
2021/09/22 00:57:51;;;;;;;48.40;8.02;;;11.30;99.90;;;;;;5033319;28;20034;-82
2021/09/22 01:00:19;;;;;;;64.18;7.85;;;11.20;99.90;;;;;;5033465;28;20105;-82
2021/09/22 01:02:48;;;;;;;57.20;7.13;;;11.20;99.90;;;;;;5043818;28;20033;-82
2021/09/22 01:05:20;;;;;;;53.63;6.57;;;11.10;99.90;;;;;;5051729;28;20035;-82
2021/09/22 01:07:46;;;;;;;33.15;5.28;;;11.10;99.90;;;;;;5053024;28;20055;-82
2021/09/22 01:10:12;;;;;;;43.35;6.30;;;11.00;99.90;;;;;;5051822;28;20097;-82
2021/09/22 01:12:38;;;;;;;51.05;8.07;;;10.80;99.90;;;;;;5049681;28;20028;-82
2021/09/22 01:15:05;;;;;;;55.72;7.43;;;10.80;99.90;;;;;;5052828;28;20035;-82
2021/09/22 01:17:32;;;;;;;59.45;7.45;;;10.70;99.90;;;;;;5052725;28;20035;-82
2021/09/22 01:20:00;;;;;;;53.85;5.80;;;10.70;99.90;;;;;;5052954;28;20028;-82
2021/09/22 01:22:25;;;;;;;36.10;5.43;;;10.60;99.90;;;;;;5048932;28;20033;-82
2021/09/22 01:24:51;;;;;;;27.65;5.70;;;10.50;99.90;;;;;;5043752;28;20029;-82
2021/09/22 01:27:16;;;;;;;25.70;4.57;;;10.40;99.90;;;;;;5031343;28;20442;-82
2021/09/22 01:29:43;;;;;;;36.33;4.80;;;10.30;99.90;;;;;;5031606;28;20021;-81
2021/09/22 01:32:11;;;;;;;23.63;4.35;;;10.20;99.90;;;;;;5032664;28;20021;-81
2021/09/22 01:34:36;;;;;;;23.70;4.30;;;10.10;99.90;;;;;;5048952;28;20025;-81
2021/09/22 01:37:03;;;;;;;26.25;4.28;;;10.00;99.90;;;;;;5052512;28;20078;-82
2021/09/22 01:39:39;;;;;;;25.25;5.13;;;10.00;99.90;;;;;;5051385;28;20099;-82
2021/09/22 01:42:05;;;;;;;29.90;5.30;;;10.00;99.90;;;;;;5034590;28;20116;-82
2021/09/22 01:44:35;;;;;;;36.00;4.35;;;10.00;99.90;;;;;;5032313;28;20037;-81
2021/09/22 01:47:02;;;;;;;24.17;3.35;;;9.90;99.90;;;;;;5032285;28;20025;-82
2021/09/22 01:49:27;;;;;;;22.55;3.58;;;9.90;99.90;;;;;;5032477;28;20048;-81
2021/09/22 01:52:02;;;;;;;35.58;4.88;;;9.90;99.90;;;;;;5045321;28;20033;-81
2021/09/22 01:54:28;;;;;;;32.95;4.32;;;9.80;99.90;;;;;;5052016;28;20374;-81
2021/09/22 01:56:55;;;;;;;21.52;3.88;;;9.80;99.90;;;;;;5050950;28;20447;-81
2021/09/22 01:59:20;;;;;;;27.08;5.15;;;9.70;99.90;;;;;;5052112;28;20056;-81
2021/09/22 02:01:46;;;;;;;25.25;4.57;;;9.80;99.90;;;;;;5041373;28;20033;-81
2021/09/22 02:04:12;;;;;;;19.02;4.30;;;9.80;99.90;;;;;;5033928;28;20021;-81
2021/09/22 02:06:37;;;;;;;33.00;4.55;;;9.70;99.90;;;;;;5050706;28;20025;-81
2021/09/22 02:09:04;;;;;;;32.90;5.80;;;9.70;99.90;;;;;;5050800;28;20451;-82
2021/09/22 02:11:29;;;;;;;30.45;5.75;;;9.60;99.90;;;;;;5046307;28;20073;-81
2021/09/22 02:13:55;;;;;;;18.35;3.20;;;9.70;99.90;;;;;;5030002;28;20167;-81
2021/09/22 02:16:21;;;;;;;39.88;5.63;;;9.60;99.90;;;;;;5032003;28;20045;-81
2021/09/22 02:18:46;;;;;;;58.80;6.40;;;9.60;99.90;;;;;;5030755;28;20022;-81
2021/09/22 02:21:12;;;;;;;43.83;6.05;;;9.70;99.90;;;;;;5032039;28;20116;-81
2021/09/22 02:23:38;;;;;;;25.42;4.05;;;9.80;99.90;;;;;;5050462;28;20507;-81
2021/09/22 02:26:06;;;;;;;19.80;3.53;;;9.60;99.90;;;;;;5048785;28;20075;-82
2021/09/22 02:28:32;;;;;;;30.75;5.10;;;9.60;99.90;;;;;;5051717;28;20037;-81
2021/09/22 02:30:58;;;;;;;32.33;4.45;;;9.50;99.90;;;;;;5051682;28;20066;-81
2021/09/22 02:33:23;;;;;;;24.42;4.15;;;9.50;99.90;;;;;;5048928;28;20029;-81
2021/09/22 02:35:49;;;;;;;19.33;3.38;;;9.40;99.90;;;;;;5050259;28;20408;-81
2021/09/22 02:38:15;;;;;;;28.50;3.78;;;9.40;99.90;;;;;;5051608;28;20032;-82
2021/09/22 02:40:40;;;;;;;22.40;4.03;;;9.30;99.90;;;;;;5051688;28;20025;-81
2021/09/22 02:43:06;;;;;;;22.00;3.40;;;9.30;99.90;;;;;;5040772;28;20171;-81
2021/09/22 02:45:32;;;;;;;21.92;4.38;;;9.30;99.90;;;;;;5031431;28;20033;-81
2021/09/22 02:47:57;;;;;;;36.75;4.47;;;9.30;99.90;;;;;;5031563;28;20108;-81
2021/09/22 02:50:23;;;;;;;46.28;6.13;;;9.30;99.90;;;;;;5030470;28;20021;-81
2021/09/22 02:52:49;;;;;;;34.03;6.05;;;9.50;99.90;;;;;;5036820;28;20095;-81
2021/09/22 02:55:15;;;;;;;34.53;5.15;;;9.60;99.90;;;;;;5051348;28;20021;-81
2021/09/22 02:57:40;;;;;;;36.40;4.95;;;9.80;99.90;;;;;;5051376;28;20124;-81
2021/09/22 03:00:08;;;;;;;31.60;4.40;;;9.70;99.90;;;;;;5051501;28;20416;-81
2021/09/22 03:02:34;;;;;;;20.58;3.78;;;9.70;99.90;;;;;;5049302;28;20116;-81
2021/09/22 03:05:00;;;;;;;24.63;5.25;;;9.70;99.90;;;;;;5051269;28;20083;-81
2021/09/22 03:07:25;;;;;;;31.52;4.95;;;9.60;99.90;;;;;;5050857;28;20029;-81
2021/09/22 03:09:51;;;;;;;42.42;5.45;;;9.70;99.90;;;;;;5051419;28;20083;-81
2021/09/22 03:12:17;;;;;;;33.28;5.40;;;9.70;99.90;;;;;;5046291;28;20063;-81
2021/09/22 03:14:42;;;;;;;18.25;3.75;;;9.80;99.90;;;;;;5036604;28;20086;-81
2021/09/22 03:17:08;;;;;;;15.32;3.60;;;9.70;99.90;;;;;;5030128;28;20652;-82
2021/09/22 03:19:33;;;;;;;31.70;4.68;;;9.70;99.90;;;;;;5031410;28;20029;-81
2021/09/22 03:21:59;;;;;;;50.10;4.57;;;9.60;99.90;;;;;;5034772;28;20025;-81
2021/09/22 03:24:25;;;;;;;38.67;5.90;;;9.50;99.90;;;;;;5051033;28;20508;-81
2021/09/22 03:26:51;;;;;;;46.55;6.43;;;9.60;99.90;;;;;;5052741;28;20025;-81
2021/09/22 03:29:16;;;;;;;40.10;5.40;;;9.50;99.90;;;;;;5054888;28;20036;-81
2021/09/22 03:31:43;;;;;;;40.47;6.35;;;9.70;99.90;;;;;;5055056;28;20021;-81
2021/09/22 03:34:09;;;;;;;51.20;5.35;;;9.70;99.90;;;;;;5036052;28;20103;-81
2021/09/22 03:36:35;;;;;;;62.03;7.47;;;9.60;99.90;;;;;;5033663;28;20071;-81
2021/09/22 03:39:00;;;;;;;47.25;5.85;;;9.60;99.90;;;;;;5033709;28;20021;-81
2021/09/22 03:41:26;;;;;;;42.17;5.82;;;9.70;99.90;;;;;;5034963;28;20021;-81
2021/09/22 03:43:52;;;;;;;63.65;7.75;;;9.60;99.90;;;;;;5036937;28;20108;-81
2021/09/22 03:46:18;;;;;;;42.70;5.47;;;9.60;99.90;;;;;;5034677;28;20500;-81
2021/09/22 03:48:43;;;;;;;61.22;7.07;;;9.50;99.90;;;;;;5034696;28;20402;-81
2021/09/22 03:51:09;;;;;;;52.78;6.40;;;9.50;99.90;;;;;;5034743;28;20437;-81
2021/09/22 03:53:35;;;;;;;36.72;4.78;;;9.50;99.90;;;;;;5041255;28;20048;-81
2021/09/22 03:56:01;;;;;;;36.58;4.78;;;9.40;99.90;;;;;;5054410;28;20033;-81
2021/09/22 03:58:26;;;;;;;24.27;4.35;;;9.40;99.90;;;;;;5052992;28;20028;-81
2021/09/22 04:00:52;;;;;;;53.65;6.45;;;9.30;99.90;;;;;;5053177;28;20032;-81
2021/09/22 04:03:18;;;;;;;51.90;6.63;;;9.30;99.90;;;;;;5051413;28;20059;-81
2021/09/22 04:05:43;;;;;;;32.92;5.57;;;9.30;99.90;;;;;;5032989;28;20037;-81
2021/09/22 04:08:09;;;;;;;40.42;6.47;;;9.40;99.90;;;;;;5033044;28;20037;-81
2021/09/22 04:10:35;;;;;;;28.55;5.45;;;9.30;99.90;;;;;;5033116;28;20025;-81
2021/09/22 04:13:01;;;;;;;33.53;4.82;;;9.20;99.90;;;;;;5034235;28;20107;-81
2021/09/22 04:15:26;;;;;;;34.90;6.63;;;9.20;99.90;;;;;;5050026;28;20033;-81
2021/09/22 04:17:52;;;;;;;52.85;6.68;;;9.20;99.90;;;;;;5054129;28;20025;-81
2021/09/22 04:20:18;;;;;;;63.65;7.25;;;9.10;99.90;;;;;;5054092;28;20386;-81
2021/09/22 04:22:43;;;;;;;62.75;6.72;;;9.20;99.90;;;;;;5052823;28;20633;-81
2021/09/22 04:25:10;;;;;;;62.15;8.57;;;9.40;99.90;;;;;;5048894;28;20115;-81
2021/09/22 04:27:36;;;;;;;34.38;6.20;;;9.40;99.90;;;;;;5052415;28;20021;-81
2021/09/22 04:30:04;;;;;;;50.15;6.32;;;9.40;99.90;;;;;;5052587;28;20500;-81
2021/09/22 04:32:30;;;;;;;37.67;7.22;;;9.40;99.90;;;;;;5052585;28;20066;-81
2021/09/22 04:34:56;;;;;;;48.88;7.05;;;9.30;99.90;;;;;;5045818;28;20029;-81
2021/09/22 04:37:22;;;;;;;44.70;6.63;;;9.40;99.90;;;;;;5033352;28;20108;-81
2021/09/22 04:39:47;;;;;;;28.85;5.22;;;9.30;99.90;;;;;;5032601;28;20029;-81
2021/09/22 04:42:13;;;;;;;43.85;6.43;;;9.30;99.90;;;;;;5033681;28;20231;-81
2021/09/22 04:44:39;;;;;;;41.60;6.57;;;9.20;99.90;;;;;;5035584;28;20381;-81
2021/09/22 04:47:05;;;;;;;28.30;5.28;;;9.20;99.90;;;;;;5052195;28;20078;-81
2021/09/22 04:49:31;;;;;;;34.95;6.85;;;9.10;99.90;;;;;;5052349;28;20170;-81
2021/09/22 04:51:57;;;;;;;44.30;5.97;;;9.10;99.90;;;;;;5052281;28;20037;-81
2021/09/22 04:54:23;;;;;;;40.08;5.50;;;9.10;99.90;;;;;;5053270;28;20023;-81
2021/09/22 04:56:48;;;;;;;44.45;6.40;;;9.20;99.90;;;;;;5035710;28;20112;-81
2021/09/22 04:59:14;;;;;;;49.63;7.43;;;9.10;99.90;;;;;;5033460;28;20029;-81
2021/09/22 05:01:40;;;;;;;31.55;5.43;;;9.00;99.90;;;;;;5033466;28;20025;-80
2021/09/22 05:04:07;;;;;;;41.42;6.70;;;9.00;99.90;;;;;;5033140;28;20501;-81
2021/09/22 05:06:34;;;;;;;26.90;5.43;;;9.00;99.90;;;;;;5032503;28;20061;-81
2021/09/22 05:09:00;;;;;;;32.58;5.10;;;9.00;99.90;;;;;;5032037;28;20064;-81
2021/09/22 05:11:26;;;;;;;32.17;6.10;;;8.90;99.90;;;;;;5046034;28;20060;-81
2021/09/22 05:13:52;;;;;;;20.88;4.45;;;8.70;99.90;;;;;;5032950;28;20053;-81
2021/09/22 05:16:17;;;;;;;35.25;6.13;;;8.80;99.90;;;;;;5034800;28;20496;-80
2021/09/22 05:18:43;;;;;;;34.53;6.45;;;9.00;99.90;;;;;;5033075;28;20116;-81
2021/09/22 05:21:09;;;;;;;27.42;4.55;;;8.90;99.90;;;;;;5033047;28;20027;-80
2021/09/22 05:23:34;;;;;;;43.72;6.25;;;8.90;99.90;;;;;;5045298;28;20067;-81
2021/09/22 05:26:00;;;;;;;41.65;5.97;;;8.90;99.90;;;;;;5052573;28;20557;-81
2021/09/22 05:28:26;;;;;;;30.88;5.30;;;9.00;99.90;;;;;;5051372;28;20087;-80
2021/09/22 05:30:51;;;;;;;57.78;7.00;;;9.00;99.90;;;;;;5052790;28;20036;-81
2021/09/22 05:33:17;;;;;;;42.22;7.07;;;9.20;99.90;;;;;;5043748;28;20022;-80
2021/09/22 05:35:43;;;;;;;61.33;8.07;;;9.00;99.90;;;;;;5032574;28;20486;-81
2021/09/22 05:38:09;;;;;;;83.70;8.00;;;9.20;99.90;;;;;;5031382;28;20103;-81
2021/09/22 05:40:34;;;;;;;44.92;6.03;;;9.20;99.90;;;;;;5031368;28;20064;-81
2021/09/22 05:43:00;;;;;;;32.00;4.53;;;9.40;99.90;;;;;;5033428;28;20163;-81
2021/09/22 05:45:26;;;;;;;28.27;4.80;;;9.40;99.90;;;;;;5050987;28;20392;-81
2021/09/22 05:47:52;;;;;;;29.25;4.63;;;9.30;99.90;;;;;;5050367;28;20029;-81
2021/09/22 05:50:17;;;;;;;31.45;5.95;;;9.30;99.90;;;;;;5052297;28;20025;-81
2021/09/22 05:52:43;;;;;;;34.72;5.47;;;9.30;99.90;;;;;;5052381;28;20021;-81
2021/09/22 05:55:09;;;;;;;40.65;5.70;;;9.30;99.90;;;;;;5033253;28;20508;-81
2021/09/22 05:57:35;;;;;;;36.97;5.75;;;9.30;99.90;;;;;;5032308;28;20024;-81
2021/09/22 06:00:01;;;;;;;17.00;3.97;;;9.30;99.90;;;;;;5032317;28;20091;-81
2021/09/22 06:02:26;;;;;;;52.88;6.90;;;9.30;99.90;;;;;;5046316;28;20041;-81
2021/09/22 06:04:52;;;;;;;24.52;5.53;;;9.30;99.90;;;;;;5037529;28;20040;-81
2021/09/22 06:07:17;;;;;;;30.45;5.03;;;9.30;99.90;;;;;;5030520;28;20032;-81
2021/09/22 06:09:43;;;;;;;40.97;5.75;;;9.40;99.90;;;;;;5030680;28;20030;-81
2021/09/22 06:12:09;;;;;;;33.25;5.10;;;9.50;99.90;;;;;;5030591;28;20112;-81
2021/09/22 06:14:34;;;;;;;24.83;4.70;;;9.40;99.90;;;;;;5031049;28;20094;-81
2021/09/22 06:17:00;;;;;;;53.83;6.90;;;9.60;99.90;;;;;;5031869;28;20037;-80
2021/09/22 06:19:25;;;;;;;35.92;6.78;;;9.80;99.90;;;;;;5031909;28;20033;-81
2021/09/22 06:21:51;;;;;;;45.08;7.15;;;9.90;99.90;;;;;;5031847;28;20132;-81
2021/09/22 06:24:19;;;;;;;42.40;7.97;;;10.00;99.90;;;;;;5032144;28;20032;-81
2021/09/22 06:26:46;;;;;;;24.95;4.78;;;10.20;99.90;;;;;;5051406;28;20806;-81
2021/09/22 06:29:12;;;;;;;25.85;4.50;;;10.20;99.90;;;;;;5050532;28;20112;-81
2021/09/22 06:31:38;;;;;;;22.42;5.22;;;10.20;99.90;;;;;;5050447;28;20031;-81
2021/09/22 06:34:04;;;;;;;37.17;6.55;;;10.20;99.90;;;;;;5050161;28;20025;-81
2021/09/22 06:36:30;;;;;;;51.50;7.90;;;10.40;99.90;;;;;;5032480;28;20025;-81
2021/09/22 06:38:56;;;;;;;43.13;7.03;;;10.60;99.90;;;;;;5031737;28;20449;-81
2021/09/22 06:41:23;;;;;;;40.45;7.43;;;10.70;99.90;;;;;;5031594;28;20033;-81
2021/09/22 06:43:49;;;;;;;47.50;9.10;;;10.90;99.90;;;;;;5031425;28;20022;-80
2021/09/22 06:46:15;;;;;;;70.88;9.05;;;11.10;99.90;;;;;;5044033;28;20504;-81
2021/09/22 06:48:40;;;;;;;50.35;9.57;;;11.30;99.90;;;;;;5050177;28;20078;-81
2021/09/22 06:51:06;;;;;;;43.28;7.22;;;11.40;99.90;;;;;;5051474;28;20025;-81
2021/09/22 06:53:33;;;;;;;64.75;9.77;;;11.50;99.90;;;;;;5050138;28;20112;-81
2021/09/22 06:55:59;;;;;;;55.75;8.60;;;11.70;99.90;;;;;;5041955;28;20506;-81
2021/09/22 06:58:25;;;;;;;65.22;10.07;;;11.80;99.90;;;;;;5031512;28;20068;-81
2021/09/22 07:00:50;;;;;;;62.60;8.75;;;12.00;99.90;;;;;;5033354;28;20060;-81
2021/09/22 07:03:16;;;;;;;55.80;9.15;;;12.10;99.90;;;;;;5035633;28;20498;-81
2021/09/22 07:05:43;;;;;;;60.92;8.63;;;12.10;99.90;;;;;;5035163;28;20025;-81
2021/09/22 07:08:09;;;;;;;62.78;9.32;;;12.40;99.90;;;;;;5034015;28;20029;-81
2021/09/22 07:10:36;;;;;;;61.53;9.07;;;12.60;99.90;;;;;;5037788;28;20697;-81
2021/09/22 07:13:02;;;;;;;75.20;10.23;;;12.70;99.90;;;;;;5054089;28;20028;-81
2021/09/22 07:15:28;;;;;;;74.22;9.45;;;12.80;99.90;;;;;;5053732;28;20474;-81
2021/09/22 07:17:54;;;;;;;55.35;8.40;;;13.00;99.90;;;;;;5036958;28;20033;-81
2021/09/22 07:20:19;;;;;;;53.63;9.02;;;13.10;99.90;;;;;;5035156;28;20556;-81
2021/09/22 07:22:45;;;;;;;53.63;8.82;;;13.20;99.90;;;;;;5033875;28;20033;-81
2021/09/22 07:25:11;;;;;;;59.70;11.98;;;13.30;99.90;;;;;;5034776;28;20026;-81
2021/09/22 07:27:37;;;;;;;53.92;9.80;;;13.50;99.90;;;;;;5046325;28;20028;-81
2021/09/22 07:30:04;;;;;;;67.20;9.43;;;13.80;99.90;;;;;;5054978;28;20603;-81
2021/09/22 07:32:30;;;;;;;48.80;8.82;;;13.70;99.90;;;;;;5054996;28;20393;-81
2021/09/22 07:34:55;;;;;;;55.67;8.02;;;13.80;99.90;;;;;;5054618;28;20021;-82
2021/09/22 07:37:22;;;;;;;45.15;7.65;;;13.80;99.90;;;;;;5046462;28;20036;-81
2021/09/22 07:39:47;;;;;;;60.20;8.27;;;13.90;99.90;;;;;;5034927;28;20029;-81
2021/09/22 07:42:14;;;;;;;50.88;7.32;;;14.10;99.90;;;;;;5034850;28;20095;-82
2021/09/22 07:44:47;;;;;;;44.20;7.13;;;14.30;99.90;;;;;;5033370;28;20025;-81
2021/09/22 07:47:16;;;;;;;45.20;8.02;;;14.40;99.90;;;;;;5037042;28;20029;-82
2021/09/22 07:49:43;;;;;;;39.88;7.45;;;14.50;99.90;;;;;;5045837;28;20038;-82
2021/09/22 07:52:10;;;;;;;51.30;7.82;;;14.70;99.90;;;;;;5034739;28;20067;-82
2021/09/22 07:54:37;;;;;;;46.45;8.20;;;14.80;99.90;;;;;;5033031;28;20545;-82
2021/09/22 07:57:03;;;;;;;36.50;6.22;;;14.90;99.90;;;;;;5032002;28;20474;-82
2021/09/22 07:59:29;;;;;;;47.65;7.65;;;15.10;99.90;;;;;;5047508;28;20100;-81
2021/09/22 08:01:56;;;;;;;32.65;6.20;;;15.30;99.90;;;;;;5050088;28;20017;-81
2021/09/22 08:04:21;;;;;;;36.28;6.85;;;15.40;99.90;;;;;;5050175;28;20064;-81
2021/09/22 08:06:47;;;;;;;32.15;4.78;;;15.60;99.90;;;;;;5054291;28;20440;-81
2021/09/22 08:09:13;;;;;;;37.75;7.30;;;15.70;99.90;;;;;;5052349;28;20032;-83
2021/09/22 08:11:38;;;;;;;25.30;4.43;;;16.10;99.90;;;;;;5053300;28;20021;-85
2021/09/22 08:14:04;;;;;;;31.17;5.45;;;16.20;99.90;;;;;;5054042;28;20029;-84
2021/09/22 08:16:30;;;;;;;42.53;5.75;;;16.40;99.90;;;;;;5054112;28;20024;-83
2021/09/22 08:18:56;;;;;;;20.95;4.00;;;16.50;99.90;;;;;;5044100;28;20378;-84
2021/09/22 08:21:21;;;;;;;23.48;4.15;;;16.70;99.90;;;;;;5034127;28;20501;-84
2021/09/22 08:23:47;;;;;;;25.08;4.82;;;16.80;99.90;;;;;;5032644;28;20029;-84
2021/09/22 08:26:13;;;;;;;30.60;5.03;;;16.90;99.90;;;;;;5032660;28;20053;-84
2021/09/22 08:28:39;;;;;;;27.80;4.10;;;17.00;99.90;;;;;;5037283;28;20029;-84
2021/09/22 08:31:04;;;;;;;21.90;4.47;;;17.10;99.90;;;;;;5052671;28;20055;-84
2021/09/22 08:33:30;;;;;;;23.25;4.72;;;17.10;99.90;;;;;;5053624;28;20025;-84
2021/09/22 08:35:56;;;;;;;23.50;4.70;;;17.10;99.90;;;;;;5053659;28;20048;-84
2021/09/22 08:38:21;;;;;;;20.08;4.50;;;17.10;99.90;;;;;;5053687;28;20068;-83
2021/09/22 08:40:47;;;;;;;28.13;4.80;;;17.00;99.90;;;;;;5035613;28;20025;-84
2021/09/22 08:43:13;;;;;;;30.17;4.88;;;16.80;99.90;;;;;;5046398;28;20025;-83
2021/09/22 08:45:39;;;;;;;18.95;4.05;;;16.70;99.90;;;;;;5047875;28;20070;-83
2021/09/22 08:48:05;;;;;;;35.55;5.68;;;16.60;99.90;;;;;;5048840;28;20106;-84
2021/09/22 08:50:31;;;;;;;29.58;5.03;;;16.60;99.90;;;;;;5047950;28;20447;-84
2021/09/22 08:52:57;;;;;;;27.63;4.68;;;16.90;99.90;;;;;;5049410;28;20036;-84
2021/09/22 08:55:23;;;;;;;26.77;3.72;;;17.40;99.90;;;;;;5047536;28;20437;-83
2021/09/22 08:57:48;;;;;;;27.65;4.35;;;17.60;99.90;;;;;;5044661;28;20028;-83
2021/09/22 09:00:15;;;;;;;19.67;3.85;;;17.80;99.90;;;;;;5047242;28;20116;-84
2021/09/22 09:02:46;;;;;;;30.05;5.80;;;17.80;99.90;;;;;;5053284;28;20039;-85
2021/09/22 09:05:20;;;;;;;24.70;4.28;;;17.50;99.90;;;;;;5050663;28;20070;-84
2021/09/22 09:07:52;;;;;;;24.05;5.03;;;17.20;99.90;;;;;;5047746;28;20029;-83
2021/09/22 09:10:20;;;;;;;22.33;3.97;;;16.90;99.90;;;;;;5048390;28;20028;-83
2021/09/22 09:13:09;;;;;;;24.92;4.60;;;16.80;99.90;;;;;;5049120;28;20031;-84
2021/09/22 09:15:46;;;;;;;27.25;4.30;;;17.00;99.90;;;;;;5041347;28;20565;-84
2021/09/22 09:18:21;;;;;;;33.47;5.40;;;17.30;99.90;;;;;;5047550;28;20450;-84
2021/09/22 09:20:50;;;;;;;26.23;4.40;;;17.60;99.90;;;;;;5047142;28;20044;-82
2021/09/22 09:23:19;;;;;;;24.35;4.38;;;17.60;99.90;;;;;;5048115;28;20063;-83
2021/09/22 09:25:53;;;;;;;26.40;3.92;;;17.50;99.90;;;;;;5048312;28;20041;-84
2021/09/22 09:28:28;;;;;;;25.48;4.15;;;17.50;99.90;;;;;;5048866;28;20029;-84
2021/09/22 09:30:57;;;;;;;27.05;4.78;;;17.90;99.90;;;;;;5048364;28;20052;-83
2021/09/22 09:33:50;;;;;;;25.73;4.57;;;18.10;99.90;;;;;;5045902;28;20028;-84
2021/09/22 09:36:32;;;;;;;24.48;4.15;;;18.30;99.90;;;;;;5046740;28;20021;-82
2021/09/22 09:39:03;;;;;;;32.70;6.05;;;18.50;99.90;;;;;;5038852;28;20025;-83
2021/09/22 09:41:30;;;;;;;17.33;3.60;;;18.60;99.90;;;;;;5047622;28;20024;-83
2021/09/22 09:43:57;;;;;;;26.52;4.47;;;18.60;99.90;;;;;;5047807;28;20055;-84
2021/09/22 09:46:26;;;;;;;21.77;4.57;;;18.70;99.90;;;;;;5048193;28;20021;-85
2021/09/22 09:48:57;;;;;;;24.45;3.83;;;18.90;99.90;;;;;;5039462;28;20047;-86
2021/09/22 09:51:30;;;;;;;26.65;4.38;;;18.90;99.90;;;;;;5047721;28;20021;-85
2021/09/22 09:54:08;;;;;;;24.08;4.53;;;18.90;99.90;;;;;;5046821;28;20159;-83
2021/09/22 09:56:33;;;;;;;29.60;4.28;;;19.00;99.90;;;;;;5037911;28;20056;-84
2021/09/22 09:58:59;;;;;;;19.13;4.35;;;18.90;99.90;;;;;;5033567;28;20021;-85
2021/09/22 10:01:51;;;;;;;24.60;4.07;;;19.00;99.90;;;;;;5039776;28;20561;-84
2021/09/22 10:04:20;;;;;;;16.77;3.85;;;18.70;99.90;;;;;;5047047;28;20116;-82
2021/09/22 10:06:47;;;;;;;19.85;3.22;;;18.70;99.90;;;;;;5046862;28;20039;-83
2021/09/22 10:09:14;;;;;;;15.98;3.38;;;18.90;99.90;;;;;;5046821;28;20021;-82
2021/09/22 10:11:45;;;;;;;16.13;3.03;;;19.00;99.90;;;;;;5047352;28;20028;-84
2021/09/22 10:14:13;;;;;;;25.25;3.35;;;19.10;99.90;;;;;;5048256;28;20428;-83
2021/09/22 10:16:40;;;;;;;21.27;3.88;;;19.10;99.90;;;;;;5047287;28;20025;-84
2021/09/22 10:19:07;;;;;;;19.25;3.67;;;19.00;99.90;;;;;;5047586;28;20048;-84
2021/09/22 10:21:34;;;;;;;19.05;3.50;;;18.90;99.90;;;;;;5047560;28;20025;-85
2021/09/22 10:24:02;;;;;;;24.38;4.03;;;18.70;99.90;;;;;;5032443;28;20029;-87
2021/09/22 10:26:31;;;;;;;19.55;4.10;;;18.70;99.90;;;;;;5031825;28;20068;-87
2021/09/22 10:29:00;;;;;;;18.00;3.40;;;18.90;99.90;;;;;;5030687;28;20113;-85
2021/09/22 10:31:29;;;;;;;17.17;3.90;;;18.90;99.90;;;;;;5030672;28;20025;-83
2021/09/22 10:33:57;;;;;;;15.90;3.85;;;18.90;99.90;;;;;;5039859;28;20048;-85
2021/09/22 10:36:43;;;;;;;25.52;4.18;;;19.20;99.90;;;;;;5031551;28;20072;-85
2021/09/22 10:39:39;;;;;;;21.33;4.30;;;19.40;99.90;;;;;;5030727;28;20040;-85
2021/09/22 10:42:22;;;;;;;26.45;4.85;;;19.30;99.90;;;;;;5030524;28;20113;-84
2021/09/22 10:44:48;;;;;;;24.17;3.78;;;19.50;99.90;;;;;;5046077;28;20076;-83
2021/09/22 10:47:32;;;;;;;23.50;5.43;;;19.80;99.90;;;;;;5051315;28;20060;-82
2021/09/22 10:49:58;;;;;;;28.63;4.15;;;19.80;99.90;;;;;;5050346;28;20017;-83
2021/09/22 10:52:36;;;;;;;25.00;4.40;;;20.00;99.90;;;;;;5049105;28;20456;-82
2021/09/22 10:55:10;;;;;;;16.63;4.00;;;20.20;99.90;;;;;;5049481;28;20060;-84
2021/09/22 10:57:38;;;;;;;22.20;4.03;;;20.20;99.90;;;;;;5048406;28;20029;-84
2021/09/22 11:00:12;;;;;;;22.10;3.95;;;20.10;99.90;;;;;;5051305;28;20017;-85
2021/09/22 11:02:56;;;;;;;24.92;4.43;;;20.30;99.90;;;;;;5051426;28;20508;-85
2021/09/22 11:05:27;;;;;;;15.77;3.42;;;20.30;99.90;;;;;;5049512;28;20036;-85
2021/09/22 11:07:53;;;;;;;18.50;4.30;;;20.10;99.90;;;;;;5051432;28;20060;-85
2021/09/22 11:10:54;;;;;;;29.77;4.20;;;20.20;99.90;;;;;;5050039;28;20056;-85
2021/09/22 11:13:20;;;;;;;31.20;5.55;;;20.20;99.90;;;;;;5051419;28;20417;-84
2021/09/22 11:15:50;;;;;;;13.18;3.03;;;20.10;99.90;;;;;;5037566;28;20025;-85
2021/09/22 11:18:20;;;;;;;18.55;3.00;;;20.10;99.90;;;;;;5029724;28;20386;-85
2021/09/22 11:20:57;;;;;;;27.77;4.40;;;20.20;99.90;;;;;;5030302;28;20436;-84
2021/09/22 11:23:24;;;;;;;22.23;3.72;;;20.30;99.90;;;;;;5030008;28;20025;-85
2021/09/22 11:25:50;;;;;;;22.25;3.47;;;20.30;99.90;;;;;;5041713;28;20119;-85
2021/09/22 11:28:16;;;;;;;13.48;3.20;;;20.30;99.90;;;;;;5049714;28;20029;-86
2021/09/22 11:30:44;;;;;;;29.42;5.22;;;20.60;99.90;;;;;;5050983;28;20494;-84
2021/09/22 11:33:29;;;;;;;22.10;3.78;;;20.90;99.90;;;;;;5049931;28;20063;-84
2021/09/22 11:36:04;;;;;;;22.05;4.22;;;20.70;99.90;;;;;;5040726;28;20041;-82
2021/09/22 11:38:35;;;;;;;19.15;4.63;;;20.60;99.90;;;;;;5029934;28;20029;-86
2021/09/22 11:41:01;;;;;;;18.60;4.00;;;21.10;99.90;;;;;;5029909;28;20072;-86
2021/09/22 11:43:26;;;;;;;21.88;4.00;;;21.30;99.90;;;;;;5029905;28;20460;-85
2021/09/22 11:46:01;;;;;;;13.43;3.40;;;21.50;99.90;;;;;;5035302;28;20051;-88
2021/09/22 11:48:29;;;;;;;20.50;3.70;;;21.60;99.90;;;;;;5053458;28;20569;-90
2021/09/22 11:50:56;;;;;;;19.33;4.03;;;21.80;99.90;;;;;;5053821;28;20064;-86
2021/09/22 11:53:29;;;;;;;17.33;2.95;;;21.70;99.90;;;;;;5053424;28;20481;-86
2021/09/22 11:55:56;;;;;;;21.85;3.50;;;21.40;99.90;;;;;;5051276;28;20079;-87
2021/09/22 11:58:27;;;;;;;13.93;3.13;;;21.60;99.90;;;;;;5034821;28;20029;-87
2021/09/22 12:00:58;;;;;;;16.13;3.97;;;21.60;99.90;;;;;;5033597;28;20025;-89
2021/09/22 12:03:26;;;;;;;14.18;2.75;;;22.00;99.90;;;;;;5035893;28;20033;-89
2021/09/22 12:06:14;;;;;;;15.05;2.78;;;22.30;99.90;;;;;;5033251;28;20025;-87
2021/09/22 12:08:43;;;;;;;17.30;3.13;;;22.60;99.90;;;;;;5035625;28;20033;-88
2021/09/22 12:11:10;;;;;;;17.27;3.55;;;23.10;99.90;;;;;;5054094;28;20067;-87
2021/09/22 12:13:43;;;;;;;20.27;3.42;;;23.30;99.90;;;;;;5052351;28;20082;-86
2021/09/22 12:16:10;;;;;;;18.15;3.58;;;23.30;99.90;;;;;;5052564;28;20017;-87
2021/09/22 12:18:37;;;;;;;14.50;3.47;;;23.00;99.90;;;;;;5053973;28;20523;-86
2021/09/22 12:21:03;;;;;;;19.10;4.00;;;23.20;99.90;;;;;;5041168;28;20033;-86
2021/09/22 12:23:32;;;;;;;28.25;4.53;;;23.40;99.90;;;;;;5044349;28;20146;-86
2021/09/22 12:26:16;;;;;;;26.33;4.90;;;23.10;99.90;;;;;;5049773;28;20061;-89
2021/09/22 12:28:43;;;;;;;22.00;4.85;;;23.40;99.90;;;;;;5049909;28;20078;-85
2021/09/22 12:31:20;;;;;;;22.95;5.22;;;23.60;99.90;;;;;;5049562;28;20032;-87
2021/09/22 12:33:47;;;;;;;19.75;4.32;;;23.20;99.90;;;;;;5047815;28;20802;-85
2021/09/22 12:36:15;;;;;;;21.60;3.97;;;22.40;99.90;;;;;;5049740;28;20478;-87
2021/09/22 12:38:51;;;;;;;21.92;4.40;;;22.60;99.90;;;;;;5048711;28;20025;-88
2021/09/22 12:41:18;;;;;;;28.75;4.65;;;22.90;99.90;;;;;;5048746;28;20029;-88
2021/09/22 12:43:46;;;;;;;24.08;4.32;;;22.80;99.90;;;;;;5048496;28;20036;-90